createdAt,value
2023-04-11T00:00:40.373Z,95.99
2023-04-11T00:03:10.268Z,95.90
2023-04-11T00:05:40.009Z,95.76
2023-04-11T00:08:09.285Z,95.86
2023-04-11T00:10:38.648Z,96.33
2023-04-11T00:13:08.014Z,95.94
2023-04-11T00:15:39.298Z,95.74
2023-04-11T00:18:09.368Z,96.21
2023-04-11T00:20:38.675Z,96.00
2023-04-11T00:23:08.869Z,96.03
2023-04-11T00:25:38.296Z,96.24
2023-04-11T00:28:07.844Z,96.44
2023-04-11T00:30:37.110Z,96.56
2023-04-11T00:33:06.553Z,96.71
2023-04-11T00:35:37.515Z,96.92
2023-04-11T00:38:07.028Z,96.71
2023-04-11T00:40:36.538Z,97.02
2023-04-11T00:43:06.034Z,97.37
2023-04-11T00:45:35.548Z,97.54
2023-04-11T00:48:05.267Z,97.77
2023-04-11T00:50:35.022Z,97.85
2023-04-11T00:53:04.661Z,97.70
2023-04-11T00:55:34.083Z,97.70
2023-04-11T00:58:03.886Z,97.99
2023-04-11T01:00:36.211Z,98.02
2023-04-11T01:03:06.897Z,98.24
2023-04-11T01:05:36.741Z,97.96
2023-04-11T01:08:06.250Z,97.78
2023-04-11T01:10:35.960Z,97.86
2023-04-11T01:13:05.271Z,97.77
2023-04-11T01:15:34.929Z,97.25
2023-04-11T01:18:05.759Z,97.61
2023-04-11T01:20:35.469Z,97.56
2023-04-11T01:23:04.894Z,97.62
2023-04-11T01:25:34.229Z,97.35
2023-04-11T01:28:04.842Z,97.31
2023-04-11T01:30:34.244Z,97.08
2023-04-11T01:33:03.753Z,96.12
2023-04-11T01:35:33.363Z,95.44
2023-04-11T01:38:03.501Z,95.47
2023-04-11T01:40:33.216Z,95.05
2023-04-11T01:43:03.364Z,95.14
2023-04-11T01:45:33.667Z,95.07
2023-04-11T01:48:08.822Z,95.56
2023-04-11T01:50:38.206Z,95.33
2023-04-11T01:53:07.833Z,95.43
2023-04-11T01:55:37.204Z,95.35
2023-04-11T01:58:06.600Z,95.29
2023-04-11T02:00:37.092Z,95.67
2023-04-11T02:03:06.690Z,95.58
2023-04-11T02:05:39.312Z,95.14
2023-04-11T02:08:08.564Z,95.03
2023-04-11T02:10:38.248Z,95.00
2023-04-11T02:13:07.535Z,94.71
2023-04-11T02:15:37.294Z,94.50
2023-04-11T02:18:08.750Z,92.61
2023-04-11T02:20:40.105Z,91.74
2023-04-11T02:23:09.397Z,92.07
2023-04-11T02:25:39.338Z,91.87
2023-04-11T02:28:08.932Z,90.80
2023-04-11T02:30:38.235Z,90.50
2023-04-11T02:33:07.791Z,90.20
2023-04-11T02:35:37.300Z,89.68
2023-04-11T02:38:06.668Z,88.19
2023-04-11T02:40:35.948Z,88.17
2023-04-11T02:43:05.287Z,87.71
2023-04-11T02:45:34.728Z,87.12
2023-04-11T02:48:04.384Z,87.19
2023-04-11T02:50:36.121Z,86.46
2023-04-11T02:53:08.561Z,86.60
2023-04-11T02:55:41.639Z,86.46
2023-04-11T02:58:11.130Z,86.62
2023-04-11T03:00:41.775Z,86.39
2023-04-11T03:03:12.602Z,86.50
2023-04-11T03:05:42.987Z,87.15
2023-04-11T03:08:12.874Z,87.34
2023-04-11T03:10:43.817Z,87.43
2023-04-11T03:13:13.562Z,87.79
2023-04-11T03:15:43.319Z,88.62
2023-04-11T03:18:13.181Z,87.72
2023-04-11T03:20:44.443Z,88.29
2023-04-11T03:23:14.910Z,88.70
2023-04-11T03:25:48.060Z,89.01
2023-04-11T03:28:17.825Z,89.42
2023-04-11T03:30:48.865Z,89.28
2023-04-11T03:33:19.894Z,89.16
2023-04-11T03:35:49.191Z,89.43
2023-04-11T03:38:18.512Z,88.33
2023-04-11T03:40:48.234Z,88.12
2023-04-11T03:43:19.459Z,88.30
2023-04-11T03:45:48.896Z,88.33
2023-04-11T03:48:26.651Z,88.07
2023-04-11T03:50:58.334Z,89.60
2023-04-11T03:53:29.327Z,89.68
2023-04-11T03:56:01.574Z,89.70
2023-04-11T03:58:33.059Z,89.85
2023-04-11T04:01:03.018Z,90.23
2023-04-11T04:03:33.217Z,89.90
2023-04-11T04:06:03.257Z,89.60
2023-04-11T04:08:32.606Z,88.86
2023-04-11T04:11:01.985Z,88.74
2023-04-11T04:13:32.731Z,89.16
2023-04-11T04:16:04.337Z,89.44
2023-04-11T04:18:34.350Z,89.49
2023-04-11T04:21:03.822Z,87.39
2023-04-11T04:23:33.738Z,87.63
2023-04-11T04:26:05.117Z,86.68
2023-04-11T04:28:35.250Z,86.22
2023-04-11T04:31:05.605Z,84.40
2023-04-11T04:33:36.879Z,84.23
2023-04-11T04:36:10.262Z,84.53
2023-04-11T04:38:41.363Z,85.38
2023-04-11T04:41:13.476Z,85.27
2023-04-11T04:43:43.809Z,85.27
2023-04-11T04:46:18.252Z,85.27
2023-04-11T04:48:49.612Z,84.90
2023-04-11T04:51:19.330Z,84.20
2023-04-11T04:53:48.576Z,83.67
2023-04-11T04:56:17.929Z,83.49
2023-04-11T04:58:48.734Z,83.35
2023-04-11T05:01:20.591Z,83.76
2023-04-11T05:03:52.942Z,84.01
2023-04-11T05:06:24.326Z,84.88
2023-04-11T05:08:53.612Z,85.16
2023-04-11T05:11:23.433Z,84.50
2023-04-11T05:13:54.093Z,85.39
2023-04-11T05:16:23.709Z,85.56
2023-04-11T05:18:53.075Z,86.19
2023-04-11T05:21:22.754Z,86.94
2023-04-11T05:23:54.001Z,88.25
2023-04-11T05:26:25.679Z,89.12
2023-04-11T05:28:55.333Z,89.79
2023-04-11T05:31:29.059Z,90.45
2023-04-11T05:33:58.967Z,90.94
2023-04-11T05:36:29.396Z,91.32
2023-04-11T05:38:58.776Z,91.51
2023-04-11T05:41:30.047Z,91.81
2023-04-11T05:43:59.315Z,91.89
2023-04-11T05:46:29.672Z,92.25
2023-04-11T05:49:00.957Z,92.32
2023-04-11T05:51:30.200Z,91.81
2023-04-11T05:53:59.487Z,90.16
2023-04-11T05:56:29.073Z,89.06
2023-04-11T05:58:58.335Z,86.15
2023-04-11T06:01:27.613Z,85.26
2023-04-11T06:03:57.897Z,84.65
2023-04-11T06:06:27.718Z,82.88
2023-04-11T06:08:57.134Z,81.57
2023-04-11T06:11:28.064Z,79.84
2023-04-11T06:13:57.510Z,78.36
2023-04-11T06:16:27.200Z,78.60
2023-04-11T06:18:56.521Z,78.95
2023-04-11T06:21:26.269Z,78.84
2023-04-11T06:23:55.700Z,80.12
2023-04-11T06:26:28.329Z,82.36
2023-04-11T06:28:57.854Z,82.58
2023-04-11T06:31:27.257Z,82.86
2023-04-11T06:33:57.163Z,84.63
2023-04-11T06:36:27.537Z,85.20
2023-04-11T06:38:57.536Z,85.01
2023-04-11T06:41:26.823Z,84.88
2023-04-11T06:43:56.841Z,84.46
2023-04-11T06:46:29.176Z,84.99
2023-04-11T06:48:58.499Z,83.75
2023-04-11T06:51:27.846Z,83.60
2023-04-11T06:53:57.613Z,83.35
2023-04-11T06:56:27.055Z,82.70
2023-04-11T06:58:56.342Z,81.27
2023-04-11T07:01:30.349Z,81.90
2023-04-11T07:04:00.369Z,81.34
2023-04-11T07:06:31.914Z,80.14
2023-04-11T07:09:01.466Z,79.98
2023-04-11T07:11:31.089Z,79.75
2023-04-11T07:14:02.144Z,81.02
2023-04-11T07:16:31.429Z,79.02
2023-04-11T07:19:01.112Z,78.34
2023-04-11T07:21:32.225Z,78.74
2023-04-11T07:24:01.516Z,77.18
2023-04-11T07:26:32.592Z,76.48
2023-04-11T07:29:02.256Z,76.76
2023-04-11T07:31:31.677Z,76.13
2023-04-11T07:34:01.288Z,73.62
2023-04-11T07:36:31.551Z,73.03
2023-04-11T07:39:01.328Z,73.75
2023-04-11T07:41:30.614Z,73.02
2023-04-11T07:43:59.848Z,71.81
2023-04-11T07:46:29.103Z,70.60
2023-04-11T07:48:58.454Z,70.39
2023-04-11T07:51:28.195Z,70.03
2023-04-11T07:53:57.766Z,71.10
2023-04-11T07:56:27.354Z,70.64
2023-04-11T07:58:58.432Z,71.83
2023-04-11T08:01:27.863Z,70.55
2023-04-11T08:03:58.290Z,70.90
2023-04-11T08:06:29.192Z,69.84
2023-04-11T08:08:58.752Z,69.41
2023-04-11T08:11:28.436Z,68.92
2023-04-11T08:13:57.964Z,70.45
2023-04-11T08:16:27.535Z,72.05
2023-04-11T08:18:57.315Z,70.06
2023-04-11T08:21:27.036Z,69.91
2023-04-11T08:23:56.471Z,70.31
2023-04-11T08:26:26.128Z,70.43
2023-04-11T08:28:55.577Z,70.61
2023-04-11T08:31:25.005Z,70.00
2023-04-11T08:33:54.640Z,71.01
2023-04-11T08:36:24.547Z,72.28
2023-04-11T08:38:55.312Z,72.50
2023-04-11T08:41:24.545Z,71.05
2023-04-11T08:43:54.644Z,67.38
2023-04-11T08:46:24.488Z,68.44
2023-04-11T08:48:53.780Z,68.91
2023-04-11T08:51:29.950Z,67.01
2023-04-11T08:54:01.926Z,66.86
2023-04-11T08:56:31.468Z,66.00
2023-04-11T08:59:01.276Z,65.74
2023-04-11T09:01:35.053Z,66.02
2023-04-11T09:04:07.522Z,66.14
2023-04-11T09:06:38.819Z,64.37
2023-04-11T09:09:09.788Z,65.04
2023-04-11T09:11:55.433Z,65.82
2023-04-11T09:14:27.851Z,65.28
2023-04-11T09:16:59.638Z,62.50
2023-04-11T09:19:31.545Z,62.61
2023-04-11T09:22:04.206Z,62.65
2023-04-11T09:24:35.757Z,59.80
2023-04-11T09:27:15.635Z,59.28
2023-04-11T09:29:47.031Z,56.69
2023-04-11T09:32:33.887Z,51.81
2023-04-11T09:35:19.653Z,55.21
2023-04-11T09:37:56.737Z,54.76
2023-04-11T09:40:28.640Z,53.81
2023-04-11T09:43:00.519Z,52.71
2023-04-11T09:45:38.180Z,50.06
2023-04-11T09:48:02.604Z,50.84
2023-04-11T09:50:34.308Z,51.22
2023-04-11T09:53:04.490Z,51.60
2023-04-11T09:55:34.487Z,52.75
2023-04-11T09:58:04.833Z,53.87
2023-04-11T10:00:34.113Z,54.33
2023-04-11T10:03:03.862Z,52.58
2023-04-11T10:05:33.419Z,52.35
2023-04-11T10:08:30.978Z,51.94
2023-04-11T10:11:02.147Z,48.13
2023-04-11T10:13:37.526Z,49.98
2023-04-11T10:16:10.131Z,49.76
2023-04-11T10:18:40.571Z,50.27
2023-04-11T10:21:13.162Z,52.31
2023-04-11T10:24:00.245Z,54.28
2023-04-11T10:27:01.761Z,56.15
2023-04-11T10:29:34.695Z,59.03
2023-04-11T10:32:16.121Z,61.36
2023-04-11T10:34:54.542Z,58.38
2023-04-11T10:37:33.790Z,57.07
2023-04-11T10:40:08.945Z,60.43
2023-04-11T10:42:46.723Z,58.72
2023-04-11T10:45:29.624Z,59.97
2023-04-11T10:48:05.534Z,60.44
2023-04-11T10:50:40.995Z,60.04
2023-04-11T10:53:14.691Z,56.02
2023-04-11T10:55:48.932Z,54.79
2023-04-11T10:58:22.540Z,53.51
2023-04-11T11:01:13.303Z,55.40
2023-04-11T11:03:41.990Z,53.36
2023-04-11T11:06:11.720Z,53.85
2023-04-11T11:08:42.048Z,53.65
2023-04-11T11:11:12.288Z,53.15
2023-04-11T11:13:51.754Z,51.59
2023-04-11T11:16:26.314Z,53.29
2023-04-11T11:18:58.840Z,54.37
2023-04-11T11:21:29.005Z,50.58
2023-04-11T11:24:00.982Z,48.76
2023-04-11T11:26:40.939Z,47.33
2023-04-11T11:29:11.378Z,48.82
2023-04-11T11:31:42.141Z,51.47
2023-04-11T11:36:46.544Z,47.19
2023-04-11T11:39:15.946Z,47.49
2023-04-11T11:41:45.789Z,44.98
2023-04-11T11:44:29.416Z,47.72
2023-04-11T11:47:18.566Z,48.94
2023-04-11T11:49:50.706Z,50.71
2023-04-11T11:52:37.517Z,53.80
2023-04-11T11:55:22.749Z,51.39
2023-04-11T11:57:52.296Z,48.79
2023-04-11T12:00:26.182Z,50.35
2023-04-11T12:02:57.116Z,50.35
2023-04-11T12:05:28.934Z,49.75
2023-04-11T12:08:00.103Z,47.87
2023-04-11T12:10:41.054Z,49.24
2023-04-11T12:13:15.797Z,51.64
2023-04-11T12:15:48.019Z,50.91
2023-04-11T12:18:17.632Z,49.29
2023-04-11T12:20:46.920Z,47.73
2023-04-11T12:23:16.642Z,47.95
2023-04-11T12:25:46.678Z,49.19
2023-04-11T12:28:16.497Z,47.52
2023-04-11T12:30:46.050Z,46.32
2023-04-11T12:33:16.626Z,46.86
2023-04-11T12:35:45.951Z,45.97
2023-04-11T12:38:17.749Z,45.71
2023-04-11T12:40:47.069Z,46.18
2023-04-11T12:43:16.900Z,49.37
2023-04-11T12:45:46.316Z,47.63
2023-04-11T12:48:15.779Z,45.62
2023-04-11T12:50:45.111Z,44.29
2023-04-11T12:53:14.803Z,45.02
2023-04-11T12:55:44.109Z,44.89
2023-04-11T12:58:13.583Z,43.41
2023-04-11T13:00:42.867Z,42.61
2023-04-11T13:03:12.382Z,43.66
2023-04-11T13:05:41.838Z,44.12
2023-04-11T13:08:12.075Z,45.78
2023-04-11T13:10:41.429Z,44.12
2023-04-11T13:13:18.042Z,44.63
2023-04-11T13:15:41.838Z,45.22
2023-04-11T13:18:11.319Z,44.70
2023-04-11T13:20:40.990Z,43.45
2023-04-11T13:23:11.496Z,42.00
2023-04-11T13:25:41.582Z,41.77
2023-04-11T13:28:11.101Z,41.57
2023-04-11T13:30:41.192Z,44.03
2023-04-11T13:33:11.089Z,43.94
2023-04-11T13:35:40.904Z,42.76
2023-04-11T13:38:12.375Z,42.78
2023-04-11T13:40:42.756Z,43.53
2023-04-11T13:43:12.110Z,43.31
2023-04-11T13:45:41.550Z,42.49
2023-04-11T13:48:11.226Z,43.62
2023-04-11T13:50:40.847Z,42.43
2023-04-11T13:53:11.394Z,41.58
2023-04-11T13:55:40.870Z,40.56
2023-04-11T13:58:10.227Z,41.71
2023-04-11T14:00:39.508Z,41.96
2023-04-11T14:03:09.040Z,42.84
2023-04-11T14:05:39.082Z,41.90
2023-04-11T14:08:09.082Z,42.21
2023-04-11T14:10:38.729Z,42.20
2023-04-11T14:13:11.301Z,42.08
2023-04-11T14:15:39.167Z,42.77
2023-04-11T14:18:08.611Z,40.65
2023-04-11T14:20:38.597Z,40.53
2023-04-11T14:23:10.083Z,39.69
2023-04-11T14:25:39.642Z,39.16
2023-04-11T14:28:09.183Z,41.34
2023-04-11T14:30:38.535Z,40.46
2023-04-11T14:33:08.095Z,40.54
2023-04-11T14:35:38.161Z,40.95
2023-04-11T14:38:07.806Z,41.12
2023-04-11T14:40:37.159Z,41.10
2023-04-11T14:43:06.610Z,41.87
2023-04-11T14:45:36.476Z,41.10
2023-04-11T14:48:06.902Z,41.87
2023-04-11T14:50:36.405Z,41.80
2023-04-11T14:53:06.029Z,42.26
2023-04-11T14:55:35.659Z,41.89
2023-04-11T14:58:05.010Z,44.95
2023-04-11T15:00:34.573Z,42.19
2023-04-11T15:03:04.282Z,43.05
2023-04-11T15:05:33.883Z,43.40
2023-04-11T15:08:03.664Z,44.13
2023-04-11T15:10:32.930Z,44.13
2023-04-11T15:13:03.350Z,43.91
2023-04-11T15:15:32.753Z,42.81
2023-04-11T15:18:22.231Z,43.43
2023-04-11T15:20:52.673Z,43.35
2023-04-11T15:23:22.596Z,42.46
2023-04-11T15:25:59.714Z,43.33
2023-04-11T15:28:34.713Z,42.86
2023-04-11T15:31:05.813Z,42.66
2023-04-11T15:33:35.751Z,44.33
2023-04-11T15:36:06.501Z,44.92
2023-04-11T15:38:37.038Z,44.59
2023-04-11T15:41:07.536Z,45.33
2023-04-11T15:43:37.092Z,45.48
2023-04-11T15:46:08.444Z,45.74
2023-04-11T15:48:39.687Z,46.23
2023-04-11T15:51:14.117Z,46.28
2023-04-11T15:53:43.532Z,44.75
2023-04-11T15:56:13.549Z,43.64
2023-04-11T15:58:43.287Z,44.16
2023-04-11T16:01:23.200Z,45.22
2023-04-11T16:03:55.373Z,44.21
2023-04-11T16:06:24.921Z,46.04
2023-04-11T16:08:54.953Z,47.08
2023-04-11T16:11:24.257Z,48.37
2023-04-11T16:13:53.829Z,49.32
2023-04-11T16:16:23.137Z,49.47
2023-04-11T16:18:52.620Z,49.34
2023-04-11T16:21:23.577Z,49.24
2023-04-11T16:23:56.705Z,50.47
2023-04-11T16:26:27.101Z,50.41
2023-04-11T16:28:56.369Z,51.44
2023-04-11T16:31:25.772Z,51.46
2023-04-11T16:33:56.163Z,51.85
2023-04-11T16:36:27.330Z,51.89
2023-04-11T16:38:56.693Z,51.01
2023-04-11T16:41:26.175Z,51.12
2023-04-11T16:43:56.237Z,52.31
2023-04-11T16:46:25.733Z,52.15
2023-04-11T16:48:55.968Z,52.70
2023-04-11T16:51:26.121Z,52.39
2023-04-11T16:53:56.521Z,52.36
2023-04-11T16:56:27.770Z,53.52
2023-04-11T16:58:57.567Z,52.16
2023-04-11T17:01:27.054Z,53.69
2023-04-11T17:03:56.900Z,52.82
2023-04-11T17:06:27.216Z,52.19
2023-04-11T17:08:57.849Z,52.60
2023-04-11T17:11:27.310Z,52.50
2023-04-11T17:13:57.106Z,52.93
2023-04-11T17:16:26.951Z,52.67
2023-04-11T17:18:56.608Z,53.05
2023-04-11T17:21:26.455Z,54.02
2023-04-11T17:23:56.770Z,53.84
2023-04-11T17:26:26.152Z,53.88
2023-04-11T17:28:55.420Z,55.84
2023-04-11T17:31:26.379Z,56.06
2023-04-11T17:33:56.354Z,56.60
2023-04-11T17:36:26.190Z,58.02
2023-04-11T17:38:56.191Z,57.46
2023-04-11T17:41:25.513Z,57.81
2023-04-11T17:43:57.222Z,56.90
2023-04-11T17:46:27.152Z,57.55
2023-04-11T17:48:56.611Z,57.76
2023-04-11T17:51:28.271Z,56.70
2023-04-11T17:53:58.401Z,56.65
2023-04-11T17:56:28.276Z,59.49
2023-04-11T17:58:57.533Z,65.79
2023-04-11T18:01:28.662Z,69.75
2023-04-11T18:06:59.275Z,71.03
2023-04-11T18:09:30.781Z,69.58
2023-04-11T18:12:01.068Z,71.68
2023-04-11T18:14:34.010Z,69.46
2023-04-11T18:17:03.922Z,69.76
2023-04-11T18:19:33.556Z,69.72
2023-04-11T18:22:03.090Z,68.57
2023-04-11T18:24:32.637Z,71.10
2023-04-11T18:27:02.011Z,69.34
2023-04-11T18:29:31.546Z,70.02
2023-04-11T18:32:01.147Z,69.11
2023-04-11T18:34:30.456Z,68.31
2023-04-11T18:36:59.838Z,68.33
2023-04-11T18:39:29.448Z,68.87
2023-04-11T18:41:58.868Z,68.62
2023-04-11T18:44:28.433Z,68.55
2023-04-11T18:47:00.942Z,69.20
2023-04-11T18:49:30.160Z,68.35
2023-04-11T18:52:00.109Z,67.11
2023-04-11T18:54:29.432Z,68.43
2023-04-11T18:56:59.774Z,69.75
2023-04-11T18:59:29.823Z,68.38
2023-04-11T19:01:59.939Z,68.57
2023-04-11T19:04:30.245Z,68.04
2023-04-11T19:07:00.154Z,68.16
2023-04-11T19:09:30.273Z,69.40
2023-04-11T19:12:00.221Z,69.81
2023-04-11T19:14:29.485Z,68.81
2023-04-11T19:16:59.230Z,68.10
2023-04-11T19:19:29.340Z,66.88
2023-04-11T19:21:58.639Z,67.22
2023-04-11T19:24:28.001Z,66.57
2023-04-11T19:26:57.490Z,67.00
2023-04-11T19:29:27.137Z,65.96
2023-04-11T19:31:56.816Z,66.30
2023-04-11T19:34:26.545Z,66.71
2023-04-11T19:36:56.224Z,67.21
2023-04-11T19:39:25.730Z,67.19
2023-04-11T19:41:55.005Z,67.43
2023-04-11T19:44:24.491Z,67.85
2023-04-11T19:46:54.146Z,68.03
2023-04-11T19:49:23.517Z,68.74
2023-04-11T19:51:52.912Z,68.96
2023-04-11T19:54:23.301Z,69.97
2023-04-11T19:56:55.795Z,70.10
2023-04-11T19:59:25.833Z,70.23
2023-04-11T20:01:55.376Z,70.28
2023-04-11T20:04:24.972Z,70.42
2023-04-11T20:06:55.955Z,70.33
2023-04-11T20:09:26.268Z,70.54
2023-04-11T20:11:56.846Z,70.39
2023-04-11T20:14:26.380Z,71.04
2023-04-11T20:16:55.804Z,70.70
2023-04-11T20:19:26.941Z,70.54
2023-04-11T20:21:56.495Z,70.52
2023-04-11T20:24:26.321Z,70.02
2023-04-11T20:26:57.251Z,70.22
2023-04-11T20:29:29.710Z,70.75
2023-04-11T20:32:00.169Z,71.80
2023-04-11T20:34:29.508Z,70.50
2023-04-11T20:37:00.796Z,70.20
2023-04-11T20:39:32.229Z,70.59
2023-04-11T20:42:01.483Z,70.34
2023-04-11T20:44:30.926Z,70.83
2023-04-11T20:47:00.229Z,70.41
2023-04-11T20:49:31.518Z,70.85
2023-04-11T20:52:00.795Z,71.43
2023-04-11T20:54:30.057Z,71.72
2023-04-11T20:56:59.333Z,71.77
2023-04-11T20:59:29.889Z,72.06
2023-04-11T21:01:59.191Z,72.63
2023-04-11T21:04:28.819Z,72.20
2023-04-11T21:06:58.958Z,73.02
2023-04-11T21:09:28.334Z,73.48
2023-04-11T21:11:58.090Z,73.86
2023-04-11T21:14:27.686Z,73.99
2023-04-11T21:16:57.025Z,75.09
2023-04-11T21:19:26.605Z,75.28
2023-04-11T21:21:57.285Z,75.08
2023-04-11T21:24:27.906Z,75.98
2023-04-11T21:26:57.263Z,76.20
2023-04-11T21:29:27.118Z,78.18
2023-04-11T21:31:56.773Z,78.36
2023-04-11T21:34:25.990Z,78.20
2023-04-11T21:36:55.305Z,80.18
2023-04-11T21:39:24.667Z,79.96
2023-04-11T21:41:54.002Z,81.16
2023-04-11T21:44:23.328Z,80.89
2023-04-11T21:46:53.040Z,81.95
2023-04-11T21:49:22.403Z,82.81
2023-04-11T21:51:51.772Z,83.88
2023-04-11T21:54:21.229Z,84.04
2023-04-11T21:56:50.953Z,84.47
2023-04-11T21:59:21.232Z,84.13
2023-04-11T22:01:50.841Z,85.66
2023-04-11T22:04:22.131Z,85.75
2023-04-11T22:06:53.495Z,86.33
2023-04-11T22:09:23.068Z,87.69
2023-04-11T22:11:53.274Z,87.75
2023-04-11T22:14:24.422Z,88.10
2023-04-11T22:16:55.349Z,88.97
2023-04-11T22:19:25.298Z,88.57
2023-04-11T22:21:56.205Z,89.62
2023-04-11T22:24:27.219Z,90.43
2023-04-11T22:26:58.351Z,90.67
2023-04-11T22:29:29.540Z,91.91
2023-04-11T22:32:00.578Z,92.20
2023-04-11T22:34:31.047Z,93.34
2023-04-11T22:37:00.331Z,93.72
2023-04-11T22:39:30.120Z,93.93
2023-04-11T22:41:59.681Z,94.13
2023-04-11T22:44:28.992Z,94.69
2023-04-11T22:47:06.095Z,95.50
2023-04-11T22:49:38.091Z,95.30
2023-04-11T22:52:08.505Z,95.41
2023-04-11T22:54:38.594Z,96.38
2023-04-11T22:57:07.917Z,96.67
2023-04-11T22:59:38.139Z,96.65
2023-04-11T23:02:07.406Z,97.11
2023-04-11T23:04:37.007Z,97.10
2023-04-11T23:07:06.522Z,97.52
2023-04-11T23:09:36.588Z,97.22
2023-04-11T23:12:06.650Z,97.11
2023-04-11T23:14:35.980Z,97.20
2023-04-11T23:17:05.334Z,97.30
2023-04-11T23:19:35.379Z,97.41
2023-04-11T23:22:04.986Z,98.31
2023-04-11T23:24:34.429Z,98.26
2023-04-11T23:27:03.796Z,98.48
2023-04-11T23:29:33.434Z,99.32
2023-04-11T23:32:02.683Z,99.17
2023-04-11T23:34:32.302Z,99.54
2023-04-11T23:37:01.532Z,99.93
2023-04-11T23:39:31.204Z,100.00
2023-04-11T23:42:00.980Z,100.00
2023-04-11T23:44:30.689Z,100.00
2023-04-11T23:47:03.442Z,100.00
2023-04-11T23:49:32.730Z,100.00
2023-04-11T23:52:02.930Z,100.00
2023-04-11T23:54:32.414Z,100.00
2023-04-11T23:57:02.279Z,100.00
2023-04-11T23:59:32.699Z,100.00
